sensor_id;sensor_type;location;lat;lon;timestamp;temperature;humidity
22503;DHT22;11418;48.118;9.992;2022-09-03T00:02:43;13.70;99.90
22503;DHT22;11418;48.118;9.992;2022-09-03T00:06:59;13.70;99.90
22503;DHT22;11418;48.118;9.992;2022-09-03T00:11:11;13.50;99.90
22503;DHT22;11418;48.118;9.992;2022-09-03T00:15:19;13.20;99.90
22503;DHT22;11418;48.118;9.992;2022-09-03T00:19:25;13.10;99.90
22503;DHT22;11418;48.118;9.992;2022-09-03T00:23:27;13.10;99.90
22503;DHT22;11418;48.118;9.992;2022-09-03T00:27:31;13.10;99.90
22503;DHT22;11418;48.118;9.992;2022-09-03T00:31:39;13.10;99.90
22503;DHT22;11418;48.118;9.992;2022-09-03T00:40:01;12.70;99.90
22503;DHT22;11418;48.118;9.992;2022-09-03T01:06:12;12.30;99.90
22503;DHT22;11418;48.118;9.992;2022-09-03T01:18:51;12.50;99.90
22503;DHT22;11418;48.118;9.992;2022-09-03T01:31:33;12.30;99.90
22503;DHT22;11418;48.118;9.992;2022-09-03T01:35:37;12.20;99.90
22503;DHT22;11418;48.118;9.992;2022-09-03T01:44:18;12.00;99.90
22503;DHT22;11418;48.118;9.992;2022-09-03T01:48:40;12.00;99.90
22503;DHT22;11418;48.118;9.992;2022-09-03T01:52:44;11.90;99.90
22503;DHT22;11418;48.118;9.992;2022-09-03T02:01:12;11.80;99.90
22503;DHT22;11418;48.118;9.992;2022-09-03T02:05:20;11.70;99.90
22503;DHT22;11418;48.118;9.992;2022-09-03T02:09:23;11.70;99.90
22503;DHT22;11418;48.118;9.992;2022-09-03T02:13:35;11.60;99.90
22503;DHT22;11418;48.118;9.992;2022-09-03T02:17:37;11.40;99.90
22503;DHT22;11418;48.118;9.992;2022-09-03T02:21:49;11.40;99.90
22503;DHT22;11418;48.118;9.992;2022-09-03T02:25:55;11.60;99.90
22503;DHT22;11418;48.118;9.992;2022-09-03T02:29:56;11.60;99.90
22503;DHT22;11418;48.118;9.992;2022-09-03T02:33:57;11.70;99.90
22503;DHT22;11418;48.118;9.992;2022-09-03T02:38:08;11.80;99.90
22503;DHT22;11418;48.118;9.992;2022-09-03T02:42:11;11.80;99.90
22503;DHT22;11418;48.118;9.992;2022-09-03T02:46:24;12.00;99.90
22503;DHT22;11418;48.118;9.992;2022-09-03T02:50:26;12.10;99.90
22503;DHT22;11418;48.118;9.992;2022-09-03T02:54:27;12.20;99.90
22503;DHT22;11418;48.118;9.992;2022-09-03T02:58:28;12.40;99.90
22503;DHT22;11418;48.118;9.992;2022-09-03T03:02:30;12.70;99.90
22503;DHT22;11418;48.118;9.992;2022-09-03T03:06:31;12.70;99.90
22503;DHT22;11418;48.118;9.992;2022-09-03T03:10:32;12.60;99.90
22503;DHT22;11418;48.118;9.992;2022-09-03T03:14:33;12.40;99.90
22503;DHT22;11418;48.118;9.992;2022-09-03T03:18:33;12.20;99.90
22503;DHT22;11418;48.118;9.992;2022-09-03T03:22:34;12.00;99.90
22503;DHT22;11418;48.118;9.992;2022-09-03T03:26:35;12.00;99.90
22503;DHT22;11418;48.118;9.992;2022-09-03T03:30:39;11.80;99.90
22503;DHT22;11418;48.118;9.992;2022-09-03T03:34:39;11.80;99.90
22503;DHT22;11418;48.118;9.992;2022-09-03T03:38:41;11.80;99.90
22503;DHT22;11418;48.118;9.992;2022-09-03T03:42:42;11.90;99.90
22503;DHT22;11418;48.118;9.992;2022-09-03T03:46:43;11.90;99.90
22503;DHT22;11418;48.118;9.992;2022-09-03T03:50:44;12.10;99.90
22503;DHT22;11418;48.118;9.992;2022-09-03T03:54:46;12.20;99.90
22503;DHT22;11418;48.118;9.992;2022-09-03T03:58:49;12.10;99.90
22503;DHT22;11418;48.118;9.992;2022-09-03T04:02:50;12.20;99.90
22503;DHT22;11418;48.118;9.992;2022-09-03T04:06:51;12.30;99.90
22503;DHT22;11418;48.118;9.992;2022-09-03T04:10:52;12.40;99.90
22503;DHT22;11418;48.118;9.992;2022-09-03T04:14:53;12.50;99.90
22503;DHT22;11418;48.118;9.992;2022-09-03T04:18:54;12.60;99.90
22503;DHT22;11418;48.118;9.992;2022-09-03T04:22:59;12.80;99.90
22503;DHT22;11418;48.118;9.992;2022-09-03T04:27:00;12.90;99.90
22503;DHT22;11418;48.118;9.992;2022-09-03T04:31:02;12.80;99.90
22503;DHT22;11418;48.118;9.992;2022-09-03T04:35:03;12.90;99.90
22503;DHT22;11418;48.118;9.992;2022-09-03T04:39:04;13.20;99.90
22503;DHT22;11418;48.118;9.992;2022-09-03T04:43:04;13.20;99.90
22503;DHT22;11418;48.118;9.992;2022-09-03T04:47:05;13.10;99.90
22503;DHT22;11418;48.118;9.992;2022-09-03T04:51:14;13.10;99.90
22503;DHT22;11418;48.118;9.992;2022-09-03T04:55:15;12.90;99.90
22503;DHT22;11418;48.118;9.992;2022-09-03T04:59:16;12.70;99.90
22503;DHT22;11418;48.118;9.992;2022-09-03T05:03:16;12.70;99.90
22503;DHT22;11418;48.118;9.992;2022-09-03T05:07:17;12.80;99.90
22503;DHT22;11418;48.118;9.992;2022-09-03T05:11:20;13.00;99.90
22503;DHT22;11418;48.118;9.992;2022-09-03T05:15:20;12.90;99.90
22503;DHT22;11418;48.118;9.992;2022-09-03T05:19:21;12.90;99.90
22503;DHT22;11418;48.118;9.992;2022-09-03T05:23:21;13.20;99.90
22503;DHT22;11418;48.118;9.992;2022-09-03T05:27:22;13.30;99.90
22503;DHT22;11418;48.118;9.992;2022-09-03T05:31:25;13.20;99.90
22503;DHT22;11418;48.118;9.992;2022-09-03T05:35:27;13.20;99.90
22503;DHT22;11418;48.118;9.992;2022-09-03T05:39:27;13.30;99.90
22503;DHT22;11418;48.118;9.992;2022-09-03T05:43:29;13.40;99.90
22503;DHT22;11418;48.118;9.992;2022-09-03T05:47:29;13.60;99.90
22503;DHT22;11418;48.118;9.992;2022-09-03T05:51:30;13.90;99.90
22503;DHT22;11418;48.118;9.992;2022-09-03T05:55:31;14.10;99.90
22503;DHT22;11418;48.118;9.992;2022-09-03T05:59:31;14.20;99.90
22503;DHT22;11418;48.118;9.992;2022-09-03T06:03:32;14.40;99.90
22503;DHT22;11418;48.118;9.992;2022-09-03T06:07:32;14.40;99.90
22503;DHT22;11418;48.118;9.992;2022-09-03T06:11:34;14.60;99.90
22503;DHT22;11418;48.118;9.992;2022-09-03T06:15:35;14.70;99.90
22503;DHT22;11418;48.118;9.992;2022-09-03T06:19:35;14.80;99.90
22503;DHT22;11418;48.118;9.992;2022-09-03T06:23:36;15.10;99.90
22503;DHT22;11418;48.118;9.992;2022-09-03T06:27:37;15.40;99.90
22503;DHT22;11418;48.118;9.992;2022-09-03T06:31:38;15.80;99.90
22503;DHT22;11418;48.118;9.992;2022-09-03T06:35:39;16.20;99.90
22503;DHT22;11418;48.118;9.992;2022-09-03T06:39:41;16.40;99.90
22503;DHT22;11418;48.118;9.992;2022-09-03T06:43:42;16.60;99.90
22503;DHT22;11418;48.118;9.992;2022-09-03T06:47:42;16.60;99.90
22503;DHT22;11418;48.118;9.992;2022-09-03T06:51:43;16.30;99.90
22503;DHT22;11418;48.118;9.992;2022-09-03T06:55:52;16.30;99.90
22503;DHT22;11418;48.118;9.992;2022-09-03T06:59:52;16.40;99.90
22503;DHT22;11418;48.118;9.992;2022-09-03T07:03:56;16.50;99.90
22503;DHT22;11418;48.118;9.992;2022-09-03T07:07:57;16.60;99.90
22503;DHT22;11418;48.118;9.992;2022-09-03T07:11:57;16.80;99.90
22503;DHT22;11418;48.118;9.992;2022-09-03T07:16:03;17.10;99.90
22503;DHT22;11418;48.118;9.992;2022-09-03T07:20:04;17.30;99.90
22503;DHT22;11418;48.118;9.992;2022-09-03T07:24:06;17.60;99.90
22503;DHT22;11418;48.118;9.992;2022-09-03T07:28:06;17.80;99.90
22503;DHT22;11418;48.118;9.992;2022-09-03T07:32:07;18.00;99.90
22503;DHT22;11418;48.118;9.992;2022-09-03T07:36:14;18.30;99.90
22503;DHT22;11418;48.118;9.992;2022-09-03T07:40:14;18.50;99.90
22503;DHT22;11418;48.118;9.992;2022-09-03T07:44:17;19.00;99.90
22503;DHT22;11418;48.118;9.992;2022-09-03T07:48:18;19.50;99.90
22503;DHT22;11418;48.118;9.992;2022-09-03T07:52:19;19.90;99.90
22503;DHT22;11418;48.118;9.992;2022-09-03T07:56:19;20.20;99.90
22503;DHT22;11418;48.118;9.992;2022-09-03T08:00:21;20.00;99.90
22503;DHT22;11418;48.118;9.992;2022-09-03T08:04:21;20.00;99.90
22503;DHT22;11418;48.118;9.992;2022-09-03T08:08:22;19.90;99.90
22503;DHT22;11418;48.118;9.992;2022-09-03T08:12:23;19.70;99.90
22503;DHT22;11418;48.118;9.992;2022-09-03T08:16:24;19.70;99.90
22503;DHT22;11418;48.118;9.992;2022-09-03T08:20:25;19.40;99.90
22503;DHT22;11418;48.118;9.992;2022-09-03T08:24:26;19.20;99.90
22503;DHT22;11418;48.118;9.992;2022-09-03T08:28:27;19.00;99.90
22503;DHT22;11418;48.118;9.992;2022-09-03T08:32:27;18.70;99.90
22503;DHT22;11418;48.118;9.992;2022-09-03T08:36:29;18.40;99.90
22503;DHT22;11418;48.118;9.992;2022-09-03T08:40:32;18.20;99.90
22503;DHT22;11418;48.118;9.992;2022-09-03T08:44:45;18.50;99.90
22503;DHT22;11418;48.118;9.992;2022-09-03T08:48:47;18.30;99.90
22503;DHT22;11418;48.118;9.992;2022-09-03T08:52:49;18.40;99.90
22503;DHT22;11418;48.118;9.992;2022-09-03T08:56:50;18.80;99.90
22503;DHT22;11418;48.118;9.992;2022-09-03T09:00:57;19.40;99.90
22503;DHT22;11418;48.118;9.992;2022-09-03T09:05:13;20.20;99.90
22503;DHT22;11418;48.118;9.992;2022-09-03T09:13:33;22.00;99.90
22503;DHT22;11418;48.118;9.992;2022-09-03T09:22:02;23.30;99.90
22503;DHT22;11418;48.118;9.992;2022-09-03T09:26:14;24.00;99.90
22503;DHT22;11418;48.118;9.992;2022-09-03T09:30:16;23.40;99.90
22503;DHT22;11418;48.118;9.992;2022-09-03T09:34:17;22.80;99.90
22503;DHT22;11418;48.118;9.992;2022-09-03T09:38:28;22.50;99.90
22503;DHT22;11418;48.118;9.992;2022-09-03T09:42:28;22.60;99.90
22503;DHT22;11418;48.118;9.992;2022-09-03T09:46:40;23.50;99.90
22503;DHT22;11418;48.118;9.992;2022-09-03T09:50:42;24.10;99.90
22503;DHT22;11418;48.118;9.992;2022-09-03T09:54:44;24.20;99.90
22503;DHT22;11418;48.118;9.992;2022-09-03T09:58:47;24.70;99.90
22503;DHT22;11418;48.118;9.992;2022-09-03T10:02:50;25.20;99.90
22503;DHT22;11418;48.118;9.992;2022-09-03T10:06:54;25.10;99.90
22503;DHT22;11418;48.118;9.992;2022-09-03T10:10:56;25.00;99.90
22503;DHT22;11418;48.118;9.992;2022-09-03T10:15:21;24.90;99.90
22503;DHT22;11418;48.118;9.992;2022-09-03T10:19:28;24.40;99.90
22503;DHT22;11418;48.118;9.992;2022-09-03T10:24:02;25.50;99.90
22503;DHT22;11418;48.118;9.992;2022-09-03T10:28:15;27.10;99.90
22503;DHT22;11418;48.118;9.992;2022-09-03T10:36:25;27.60;99.90
22503;DHT22;11418;48.118;9.992;2022-09-03T10:40:37;27.90;99.90
22503;DHT22;11418;48.118;9.992;2022-09-03T10:58:07;28.80;99.90
22503;DHT22;11418;48.118;9.992;2022-09-03T11:02:38;29.40;99.90
22503;DHT22;11418;48.118;9.992;2022-09-03T11:06:58;29.20;99.90
22503;DHT22;11418;48.118;9.992;2022-09-03T11:11:18;28.90;99.90
22503;DHT22;11418;48.118;9.992;2022-09-03T11:15:34;27.60;99.90
22503;DHT22;11418;48.118;9.992;2022-09-03T11:19:48;28.10;99.90
22503;DHT22;11418;48.118;9.992;2022-09-03T11:24:12;28.80;99.90
22503;DHT22;11418;48.118;9.992;2022-09-03T11:28:26;29.30;99.90
22503;DHT22;11418;48.118;9.992;2022-09-03T11:32:54;29.00;99.90
22503;DHT22;11418;48.118;9.992;2022-09-03T11:37:27;28.90;99.90
22503;DHT22;11418;48.118;9.992;2022-09-03T11:41:33;27.10;99.90
22503;DHT22;11418;48.118;9.992;2022-09-03T11:45:37;25.80;99.90
22503;DHT22;11418;48.118;9.992;2022-09-03T11:49:44;24.90;99.90
22503;DHT22;11418;48.118;9.992;2022-09-03T11:53:59;24.00;99.90
22503;DHT22;11418;48.118;9.992;2022-09-03T11:58:17;22.20;99.90
22503;DHT22;11418;48.118;9.992;2022-09-03T12:02:31;19.70;99.90
22503;DHT22;11418;48.118;9.992;2022-09-03T12:06:55;18.70;99.90
22503;DHT22;11418;48.118;9.992;2022-09-03T12:15:39;18.70;99.90
22503;DHT22;11418;48.118;9.992;2022-09-03T12:19:56;18.70;99.90
22503;DHT22;11418;48.118;9.992;2022-09-03T12:23:56;18.70;99.90
22503;DHT22;11418;48.118;9.992;2022-09-03T12:28:00;18.90;99.90
22503;DHT22;11418;48.118;9.992;2022-09-03T12:32:07;19.60;99.90
22503;DHT22;11418;48.118;9.992;2022-09-03T12:36:08;20.10;99.90
22503;DHT22;11418;48.118;9.992;2022-09-03T12:40:20;20.70;99.90
22503;DHT22;11418;48.118;9.992;2022-09-03T12:44:26;21.40;99.90
22503;DHT22;11418;48.118;9.992;2022-09-03T12:48:28;22.90;99.90
22503;DHT22;11418;48.118;9.992;2022-09-03T12:52:34;23.80;99.90
22503;DHT22;11418;48.118;9.992;2022-09-03T12:56:36;24.10;99.90
22503;DHT22;11418;48.118;9.992;2022-09-03T13:00:44;23.60;99.90
22503;DHT22;11418;48.118;9.992;2022-09-03T13:04:46;23.10;99.90
22503;DHT22;11418;48.118;9.992;2022-09-03T13:12:49;24.50;99.90
22503;DHT22;11418;48.118;9.992;2022-09-03T13:17:22;24.60;99.90
22503;DHT22;11418;48.118;9.992;2022-09-03T13:30:16;28.70;99.90
22503;DHT22;11418;48.118;9.992;2022-09-03T13:34:33;29.90;99.90
22503;DHT22;11418;48.118;9.992;2022-09-03T13:42:47;28.80;99.90
22503;DHT22;11418;48.118;9.992;2022-09-03T13:46:54;27.00;99.90
22503;DHT22;11418;48.118;9.992;2022-09-03T13:55:36;23.10;99.90
22503;DHT22;11418;48.118;9.992;2022-09-03T14:03:53;22.20;99.90
22503;DHT22;11418;48.118;9.992;2022-09-03T14:08:08;22.00;99.90
22503;DHT22;11418;48.118;9.992;2022-09-03T14:20:57;22.20;99.90
22503;DHT22;11418;48.118;9.992;2022-09-03T14:25:08;21.70;99.90
22503;DHT22;11418;48.118;9.992;2022-09-03T14:33:44;21.50;99.90
22503;DHT22;11418;48.118;9.992;2022-09-03T14:38:29;21.50;99.90
22503;DHT22;11418;48.118;9.992;2022-09-03T14:47:03;21.00;99.90
22503;DHT22;11418;48.118;9.992;2022-09-03T14:51:22;20.60;99.90
22503;DHT22;11418;48.118;9.992;2022-09-03T15:00:15;20.70;99.90
22503;DHT22;11418;48.118;9.992;2022-09-03T15:13:06;21.90;99.90
22503;DHT22;11418;48.118;9.992;2022-09-03T15:21:31;21.40;99.90
22503;DHT22;11418;48.118;9.992;2022-09-03T15:34:32;23.10;99.90
22503;DHT22;11418;48.118;9.992;2022-09-03T15:38:40;27.30;99.90
22503;DHT22;11418;48.118;9.992;2022-09-03T15:42:42;29.80;99.90
22503;DHT22;11418;48.118;9.992;2022-09-03T15:46:52;30.10;99.50
22503;DHT22;11418;48.118;9.992;2022-09-03T15:51:24;30.10;98.20
22503;DHT22;11418;48.118;9.992;2022-09-03T15:55:35;31.00;96.30
22503;DHT22;11418;48.118;9.992;2022-09-03T15:59:59;31.60;93.30
22503;DHT22;11418;48.118;9.992;2022-09-03T16:08:27;27.50;99.10
22503;DHT22;11418;48.118;9.992;2022-09-03T16:25:15;22.00;99.90
22503;DHT22;11418;48.118;9.992;2022-09-03T16:29:20;21.90;99.90
22503;DHT22;11418;48.118;9.992;2022-09-03T16:38:08;21.30;99.90
22503;DHT22;11418;48.118;9.992;2022-09-03T16:46:49;21.00;99.90
22503;DHT22;11418;48.118;9.992;2022-09-03T16:51:09;20.90;99.90
22503;DHT22;11418;48.118;9.992;2022-09-03T17:00:09;20.60;99.90
22503;DHT22;11418;48.118;9.992;2022-09-03T17:17:33;19.40;99.90
22503;DHT22;11418;48.118;9.992;2022-09-03T17:21:47;19.30;99.90
22503;DHT22;11418;48.118;9.992;2022-09-03T17:30:14;19.00;99.90
22503;DHT22;11418;48.118;9.992;2022-09-03T17:42:53;18.40;99.90
22503;DHT22;11418;48.118;9.992;2022-09-03T17:55:53;18.00;99.90
22503;DHT22;11418;48.118;9.992;2022-09-03T18:00:10;17.60;99.90
22503;DHT22;11418;48.118;9.992;2022-09-03T18:04:28;17.30;99.90
22503;DHT22;11418;48.118;9.992;2022-09-03T18:08:57;17.30;99.90
22503;DHT22;11418;48.118;9.992;2022-09-03T18:13:15;17.00;99.90
22503;DHT22;11418;48.118;9.992;2022-09-03T18:17:38;16.90;99.90
22503;DHT22;11418;48.118;9.992;2022-09-03T18:21:40;16.60;99.90
22503;DHT22;11418;48.118;9.992;2022-09-03T18:26:04;16.40;99.90
22503;DHT22;11418;48.118;9.992;2022-09-03T18:30:25;16.10;99.90
22503;DHT22;11418;48.118;9.992;2022-09-03T18:34:45;15.90;99.90
22503;DHT22;11418;48.118;9.992;2022-09-03T18:39:16;15.70;99.90
22503;DHT22;11418;48.118;9.992;2022-09-03T18:44:04;15.70;99.90
22503;DHT22;11418;48.118;9.992;2022-09-03T18:48:58;16.00;99.90
22503;DHT22;11418;48.118;9.992;2022-09-03T19:12:36;15.00;99.90
22503;DHT22;11418;48.118;9.992;2022-09-03T19:22:12;14.60;99.90
22503;DHT22;11418;48.118;9.992;2022-09-03T19:26:50;14.40;99.90
22503;DHT22;11418;48.118;9.992;2022-09-03T19:31:40;14.30;99.90
22503;DHT22;11418;48.118;9.992;2022-09-03T19:36:21;14.20;99.90
22503;DHT22;11418;48.118;9.992;2022-09-03T19:40:54;14.10;99.90
22503;DHT22;11418;48.118;9.992;2022-09-03T19:45:43;14.00;99.90
22503;DHT22;11418;48.118;9.992;2022-09-03T19:50:16;14.00;99.90
22503;DHT22;11418;48.118;9.992;2022-09-03T19:54:37;14.30;99.90
22503;DHT22;11418;48.118;9.992;2022-09-03T19:59:04;14.40;99.90
22503;DHT22;11418;48.118;9.992;2022-09-03T20:03:24;14.40;99.90
22503;DHT22;11418;48.118;9.992;2022-09-03T20:07:46;14.30;99.90
22503;DHT22;11418;48.118;9.992;2022-09-03T20:12:07;14.10;99.90
22503;DHT22;11418;48.118;9.992;2022-09-03T20:16:23;14.00;99.90
22503;DHT22;11418;48.118;9.992;2022-09-03T20:20:47;13.80;99.90
22503;DHT22;11418;48.118;9.992;2022-09-03T20:25:00;13.80;99.90
22503;DHT22;11418;48.118;9.992;2022-09-03T20:33:55;13.80;99.90
22503;DHT22;11418;48.118;9.992;2022-09-03T20:38:17;13.90;99.90
22503;DHT22;11418;48.118;9.992;2022-09-03T20:51:13;13.90;99.90
22503;DHT22;11418;48.118;9.992;2022-09-03T20:55:42;13.70;99.90
22503;DHT22;11418;48.118;9.992;2022-09-03T21:00:02;13.60;99.90
22503;DHT22;11418;48.118;9.992;2022-09-03T21:04:33;13.60;99.90
22503;DHT22;11418;48.118;9.992;2022-09-03T21:21:56;13.30;99.90
22503;DHT22;11418;48.118;9.992;2022-09-03T21:26:06;13.10;99.90
22503;DHT22;11418;48.118;9.992;2022-09-03T21:30:16;13.10;99.90
22503;DHT22;11418;48.118;9.992;2022-09-03T21:38:38;12.90;99.90
22503;DHT22;11418;48.118;9.992;2022-09-03T21:42:50;12.90;99.90
22503;DHT22;11418;48.118;9.992;2022-09-03T21:47:01;13.00;99.90
22503;DHT22;11418;48.118;9.992;2022-09-03T21:51:17;13.00;99.90
22503;DHT22;11418;48.118;9.992;2022-09-03T21:55:45;12.90;99.90
22503;DHT22;11418;48.118;9.992;2022-09-03T22:00:06;12.90;99.90
22503;DHT22;11418;48.118;9.992;2022-09-03T22:04:08;12.90;99.90
22503;DHT22;11418;48.118;9.992;2022-09-03T22:08:19;12.80;99.90
22503;DHT22;11418;48.118;9.992;2022-09-03T22:12:35;13.00;99.90
22503;DHT22;11418;48.118;9.992;2022-09-03T22:16:46;13.00;99.90
22503;DHT22;11418;48.118;9.992;2022-09-03T22:21:18;13.20;99.90
22503;DHT22;11418;48.118;9.992;2022-09-03T22:29:57;13.00;99.90
22503;DHT22;11418;48.118;9.992;2022-09-03T22:34:20;12.90;99.90
22503;DHT22;11418;48.118;9.992;2022-09-03T22:42:50;12.80;99.90
22503;DHT22;11418;48.118;9.992;2022-09-03T22:51:15;12.80;99.90
22503;DHT22;11418;48.118;9.992;2022-09-03T22:55:23;12.90;99.90
22503;DHT22;11418;48.118;9.992;2022-09-03T22:59:33;12.70;99.90
22503;DHT22;11418;48.118;9.992;2022-09-03T23:03:47;12.70;99.90
22503;DHT22;11418;48.118;9.992;2022-09-03T23:07:55;12.70;99.90
22503;DHT22;11418;48.118;9.992;2022-09-03T23:11:59;12.70;99.90
22503;DHT22;11418;48.118;9.992;2022-09-03T23:16:08;12.70;99.90
22503;DHT22;11418;48.118;9.992;2022-09-03T23:20:23;12.60;99.90
22503;DHT22;11418;48.118;9.992;2022-09-03T23:24:26;12.40;99.90
22503;DHT22;11418;48.118;9.992;2022-09-03T23:28:32;12.40;99.90
22503;DHT22;11418;48.118;9.992;2022-09-03T23:32:35;12.40;99.90
22503;DHT22;11418;48.118;9.992;2022-09-03T23:40:58;12.60;99.90
22503;DHT22;11418;48.118;9.992;2022-09-03T23:49:54;12.60;99.90
22503;DHT22;11418;48.118;9.992;2022-09-03T23:54:51;12.50;99.90
